sensor_id;sensor_type;location;lat;lon;timestamp;P1;durP1;ratioP1;P2;durP2;ratioP2
48911;SDS011;34722;52.108;5.044;2023-09-18T00:01:38;38.40;;;27.17;;
48911;SDS011;34722;52.108;5.044;2023-09-18T00:04:07;36.05;;;24.75;;
48911;SDS011;34722;52.108;5.044;2023-09-18T00:06:32;38.00;;;25.95;;
48911;SDS011;34722;52.108;5.044;2023-09-18T00:08:58;35.50;;;24.52;;
48911;SDS011;34722;52.108;5.044;2023-09-18T00:11:24;38.88;;;27.08;;
48911;SDS011;34722;52.108;5.044;2023-09-18T00:13:49;36.72;;;26.35;;
48911;SDS011;34722;52.108;5.044;2023-09-18T00:16:15;35.08;;;26.08;;
48911;SDS011;34722;52.108;5.044;2023-09-18T00:18:41;36.13;;;25.67;;
48911;SDS011;34722;52.108;5.044;2023-09-18T00:21:07;33.40;;;25.33;;
48911;SDS011;34722;52.108;5.044;2023-09-18T00:23:38;32.38;;;24.80;;
48911;SDS011;34722;52.108;5.044;2023-09-18T00:26:04;33.00;;;24.88;;
48911;SDS011;34722;52.108;5.044;2023-09-18T00:28:29;33.92;;;24.75;;
48911;SDS011;34722;52.108;5.044;2023-09-18T00:30:55;32.53;;;23.73;;
48911;SDS011;34722;52.108;5.044;2023-09-18T00:33:21;34.70;;;24.13;;
48911;SDS011;34722;52.108;5.044;2023-09-18T00:35:47;29.85;;;23.38;;
48911;SDS011;34722;52.108;5.044;2023-09-18T00:38:14;31.80;;;21.70;;
48911;SDS011;34722;52.108;5.044;2023-09-18T00:40:40;29.92;;;20.38;;
48911;SDS011;34722;52.108;5.044;2023-09-18T00:43:06;28.73;;;21.30;;
48911;SDS011;34722;52.108;5.044;2023-09-18T00:45:32;26.75;;;20.58;;
48911;SDS011;34722;52.108;5.044;2023-09-18T00:47:59;31.88;;;20.63;;
48911;SDS011;34722;52.108;5.044;2023-09-18T00:50:25;29.17;;;21.17;;
48911;SDS011;34722;52.108;5.044;2023-09-18T00:52:51;26.80;;;19.60;;
48911;SDS011;34722;52.108;5.044;2023-09-18T00:55:17;25.70;;;20.23;;
48911;SDS011;34722;52.108;5.044;2023-09-18T00:57:43;25.88;;;20.23;;
48911;SDS011;34722;52.108;5.044;2023-09-18T01:00:09;24.58;;;19.88;;
48911;SDS011;34722;52.108;5.044;2023-09-18T01:02:40;26.55;;;20.02;;
48911;SDS011;34722;52.108;5.044;2023-09-18T01:05:06;24.77;;;19.83;;
48911;SDS011;34722;52.108;5.044;2023-09-18T01:07:31;25.48;;;19.67;;
48911;SDS011;34722;52.108;5.044;2023-09-18T01:09:57;25.70;;;19.55;;
48911;SDS011;34722;52.108;5.044;2023-09-18T01:12:28;24.48;;;18.83;;
48911;SDS011;34722;52.108;5.044;2023-09-18T01:15:21;24.65;;;19.23;;
48911;SDS011;34722;52.108;5.044;2023-09-18T01:17:55;25.73;;;20.33;;
48911;SDS011;34722;52.108;5.044;2023-09-18T01:20:20;23.17;;;18.65;;
48911;SDS011;34722;52.108;5.044;2023-09-18T01:22:46;23.00;;;18.70;;
48911;SDS011;34722;52.108;5.044;2023-09-18T01:25:14;23.23;;;18.58;;
48911;SDS011;34722;52.108;5.044;2023-09-18T01:27:39;25.52;;;19.17;;
48911;SDS011;34722;52.108;5.044;2023-09-18T01:30:05;23.23;;;18.80;;
48911;SDS011;34722;52.108;5.044;2023-09-18T01:32:31;29.60;;;21.73;;
48911;SDS011;34722;52.108;5.044;2023-09-18T01:34:59;36.70;;;28.33;;
48911;SDS011;34722;52.108;5.044;2023-09-18T01:37:27;74.43;;;55.30;;
48911;SDS011;34722;52.108;5.044;2023-09-18T01:39:55;64.40;;;48.83;;
48911;SDS011;34722;52.108;5.044;2023-09-18T01:42:24;42.80;;;28.80;;
48911;SDS011;34722;52.108;5.044;2023-09-18T01:44:51;34.30;;;24.77;;
48911;SDS011;34722;52.108;5.044;2023-09-18T01:47:19;32.05;;;22.15;;
48911;SDS011;34722;52.108;5.044;2023-09-18T01:49:48;31.40;;;21.92;;
48911;SDS011;34722;52.108;5.044;2023-09-18T01:52:14;30.85;;;21.95;;
48911;SDS011;34722;52.108;5.044;2023-09-18T01:54:39;29.25;;;21.95;;
48911;SDS011;34722;52.108;5.044;2023-09-18T01:57:05;29.27;;;20.60;;
48911;SDS011;34722;52.108;5.044;2023-09-18T01:59:32;29.63;;;22.27;;
48911;SDS011;34722;52.108;5.044;2023-09-18T02:01:58;29.67;;;23.25;;
48911;SDS011;34722;52.108;5.044;2023-09-18T02:04:24;28.80;;;22.33;;
48911;SDS011;34722;52.108;5.044;2023-09-18T02:06:52;29.13;;;22.77;;
48911;SDS011;34722;52.108;5.044;2023-09-18T02:09:18;32.47;;;25.30;;
48911;SDS011;34722;52.108;5.044;2023-09-18T02:11:44;33.30;;;24.42;;
48911;SDS011;34722;52.108;5.044;2023-09-18T02:14:11;30.67;;;23.30;;
48911;SDS011;34722;52.108;5.044;2023-09-18T02:16:38;30.98;;;22.50;;
48911;SDS011;34722;52.108;5.044;2023-09-18T02:19:08;31.70;;;24.42;;
48911;SDS011;34722;52.108;5.044;2023-09-18T02:21:35;35.70;;;25.00;;
48911;SDS011;34722;52.108;5.044;2023-09-18T02:24:01;33.50;;;24.70;;
48911;SDS011;34722;52.108;5.044;2023-09-18T02:26:27;39.40;;;25.83;;
48911;SDS011;34722;52.108;5.044;2023-09-18T02:28:53;38.40;;;26.15;;
48911;SDS011;34722;52.108;5.044;2023-09-18T02:31:19;36.80;;;25.48;;
48911;SDS011;34722;52.108;5.044;2023-09-18T02:33:45;44.67;;;27.88;;
48911;SDS011;34722;52.108;5.044;2023-09-18T02:36:11;39.28;;;26.50;;
48911;SDS011;34722;52.108;5.044;2023-09-18T02:38:37;38.38;;;27.63;;
48911;SDS011;34722;52.108;5.044;2023-09-18T02:41:03;32.28;;;24.70;;
48911;SDS011;34722;52.108;5.044;2023-09-18T02:43:28;38.92;;;26.02;;
48911;SDS011;34722;52.108;5.044;2023-09-18T02:45:54;34.33;;;26.75;;
48911;SDS011;34722;52.108;5.044;2023-09-18T02:48:19;39.08;;;26.08;;
48911;SDS011;34722;52.108;5.044;2023-09-18T02:50:45;41.95;;;27.52;;
48911;SDS011;34722;52.108;5.044;2023-09-18T02:53:21;38.20;;;25.30;;
48911;SDS011;34722;52.108;5.044;2023-09-18T02:55:49;39.67;;;26.85;;
48911;SDS011;34722;52.108;5.044;2023-09-18T02:58:16;38.83;;;25.35;;
48911;SDS011;34722;52.108;5.044;2023-09-18T03:00:45;33.05;;;25.55;;
48911;SDS011;34722;52.108;5.044;2023-09-18T03:03:12;36.47;;;26.38;;
48911;SDS011;34722;52.108;5.044;2023-09-18T03:05:38;33.92;;;24.77;;
48911;SDS011;34722;52.108;5.044;2023-09-18T03:08:04;38.97;;;26.25;;
48911;SDS011;34722;52.108;5.044;2023-09-18T03:10:34;35.42;;;25.60;;
48911;SDS011;34722;52.108;5.044;2023-09-18T03:13:03;36.83;;;26.13;;
48911;SDS011;34722;52.108;5.044;2023-09-18T03:15:29;34.65;;;24.63;;
48911;SDS011;34722;52.108;5.044;2023-09-18T03:17:56;37.72;;;25.85;;
48911;SDS011;34722;52.108;5.044;2023-09-18T03:20:25;36.90;;;23.65;;
48911;SDS011;34722;52.108;5.044;2023-09-18T03:22:53;36.53;;;24.75;;
48911;SDS011;34722;52.108;5.044;2023-09-18T03:25:22;37.65;;;25.40;;
48911;SDS011;34722;52.108;5.044;2023-09-18T03:27:51;34.42;;;24.85;;
48911;SDS011;34722;52.108;5.044;2023-09-18T03:30:20;37.80;;;25.65;;
48911;SDS011;34722;52.108;5.044;2023-09-18T03:32:48;31.85;;;25.40;;
48911;SDS011;34722;52.108;5.044;2023-09-18T03:35:14;36.05;;;26.27;;
48911;SDS011;34722;52.108;5.044;2023-09-18T03:37:46;38.72;;;25.20;;
48911;SDS011;34722;52.108;5.044;2023-09-18T03:40:13;37.05;;;25.70;;
48911;SDS011;34722;52.108;5.044;2023-09-18T03:42:39;36.78;;;24.75;;
48911;SDS011;34722;52.108;5.044;2023-09-18T03:45:05;40.15;;;26.58;;
48911;SDS011;34722;52.108;5.044;2023-09-18T03:47:32;39.78;;;25.25;;
48911;SDS011;34722;52.108;5.044;2023-09-18T03:49:59;39.28;;;26.05;;
48911;SDS011;34722;52.108;5.044;2023-09-18T03:52:24;39.45;;;23.65;;
48911;SDS011;34722;52.108;5.044;2023-09-18T03:54:50;37.78;;;22.63;;
48911;SDS011;34722;52.108;5.044;2023-09-18T03:57:16;37.20;;;23.85;;
48911;SDS011;34722;52.108;5.044;2023-09-18T03:59:41;33.15;;;22.75;;
48911;SDS011;34722;52.108;5.044;2023-09-18T04:02:07;37.97;;;24.58;;
48911;SDS011;34722;52.108;5.044;2023-09-18T04:04:32;34.83;;;23.38;;
48911;SDS011;34722;52.108;5.044;2023-09-18T04:06:58;38.90;;;25.67;;
48911;SDS011;34722;52.108;5.044;2023-09-18T04:09:24;36.90;;;24.65;;
48911;SDS011;34722;52.108;5.044;2023-09-18T04:11:49;42.22;;;24.58;;
48911;SDS011;34722;52.108;5.044;2023-09-18T04:14:15;12.65;;;7.75;;
48911;SDS011;34722;52.108;5.044;2023-09-18T04:16:40;5.30;;;3.58;;
48911;SDS011;34722;52.108;5.044;2023-09-18T04:19:07;4.97;;;3.40;;
48911;SDS011;34722;52.108;5.044;2023-09-18T04:21:34;6.90;;;5.43;;
48911;SDS011;34722;52.108;5.044;2023-09-18T04:24:00;12.68;;;8.32;;
48911;SDS011;34722;52.108;5.044;2023-09-18T04:26:27;18.10;;;9.52;;
48911;SDS011;34722;52.108;5.044;2023-09-18T04:28:56;17.50;;;12.82;;
48911;SDS011;34722;52.108;5.044;2023-09-18T04:31:22;26.88;;;15.80;;
48911;SDS011;34722;52.108;5.044;2023-09-18T04:33:48;35.13;;;18.88;;
48911;SDS011;34722;52.108;5.044;2023-09-18T04:36:14;32.33;;;17.33;;
48911;SDS011;34722;52.108;5.044;2023-09-18T04:38:41;30.30;;;19.27;;
48911;SDS011;34722;52.108;5.044;2023-09-18T04:41:07;25.15;;;16.92;;
48911;SDS011;34722;52.108;5.044;2023-09-18T04:43:35;25.65;;;17.42;;
48911;SDS011;34722;52.108;5.044;2023-09-18T04:46:02;32.85;;;17.38;;
48911;SDS011;34722;52.108;5.044;2023-09-18T04:48:30;28.50;;;17.50;;
48911;SDS011;34722;52.108;5.044;2023-09-18T04:50:56;31.92;;;17.67;;
48911;SDS011;34722;52.108;5.044;2023-09-18T04:53:22;25.38;;;17.20;;
48911;SDS011;34722;52.108;5.044;2023-09-18T04:55:47;40.85;;;20.30;;
48911;SDS011;34722;52.108;5.044;2023-09-18T04:58:16;29.92;;;16.63;;
48911;SDS011;34722;52.108;5.044;2023-09-18T05:00:42;32.72;;;18.90;;
48911;SDS011;34722;52.108;5.044;2023-09-18T05:03:08;32.10;;;16.75;;
48911;SDS011;34722;52.108;5.044;2023-09-18T05:05:34;27.45;;;16.15;;
48911;SDS011;34722;52.108;5.044;2023-09-18T05:08:05;35.42;;;19.45;;
48911;SDS011;34722;52.108;5.044;2023-09-18T05:10:35;32.05;;;18.13;;
48911;SDS011;34722;52.108;5.044;2023-09-18T05:13:02;33.13;;;20.13;;
48911;SDS011;34722;52.108;5.044;2023-09-18T05:15:29;35.38;;;20.67;;
48911;SDS011;34722;52.108;5.044;2023-09-18T05:17:54;36.05;;;20.17;;
48911;SDS011;34722;52.108;5.044;2023-09-18T05:20:23;39.70;;;22.90;;
48911;SDS011;34722;52.108;5.044;2023-09-18T05:22:51;37.72;;;20.50;;
48911;SDS011;34722;52.108;5.044;2023-09-18T05:25:18;34.83;;;21.77;;
48911;SDS011;34722;52.108;5.044;2023-09-18T05:27:44;35.00;;;21.65;;
48911;SDS011;34722;52.108;5.044;2023-09-18T05:30:11;41.08;;;23.70;;
48911;SDS011;34722;52.108;5.044;2023-09-18T05:32:38;40.45;;;22.10;;
48911;SDS011;34722;52.108;5.044;2023-09-18T05:35:04;43.25;;;23.48;;
48911;SDS011;34722;52.108;5.044;2023-09-18T05:37:31;38.05;;;22.45;;
48911;SDS011;34722;52.108;5.044;2023-09-18T05:39:57;53.72;;;24.95;;
48911;SDS011;34722;52.108;5.044;2023-09-18T05:42:23;46.67;;;25.52;;
48911;SDS011;34722;52.108;5.044;2023-09-18T05:44:49;46.90;;;27.00;;
48911;SDS011;34722;52.108;5.044;2023-09-18T05:47:14;50.97;;;26.33;;
48911;SDS011;34722;52.108;5.044;2023-09-18T05:49:40;45.22;;;26.35;;
48911;SDS011;34722;52.108;5.044;2023-09-18T05:52:05;47.72;;;26.85;;
48911;SDS011;34722;52.108;5.044;2023-09-18T05:54:31;50.78;;;25.88;;
48911;SDS011;34722;52.108;5.044;2023-09-18T05:56:57;49.10;;;25.70;;
48911;SDS011;34722;52.108;5.044;2023-09-18T05:59:22;47.42;;;25.52;;
48911;SDS011;34722;52.108;5.044;2023-09-18T06:01:48;49.60;;;25.83;;
48911;SDS011;34722;52.108;5.044;2023-09-18T06:04:14;45.85;;;26.00;;
48911;SDS011;34722;52.108;5.044;2023-09-18T06:06:41;49.88;;;27.35;;
48911;SDS011;34722;52.108;5.044;2023-09-18T06:09:07;45.80;;;25.92;;
48911;SDS011;34722;52.108;5.044;2023-09-18T06:11:33;40.90;;;25.10;;
48911;SDS011;34722;52.108;5.044;2023-09-18T06:13:58;37.20;;;23.73;;
48911;SDS011;34722;52.108;5.044;2023-09-18T06:16:24;43.47;;;24.50;;
48911;SDS011;34722;52.108;5.044;2023-09-18T06:18:50;40.35;;;25.00;;
48911;SDS011;34722;52.108;5.044;2023-09-18T06:21:15;33.30;;;20.17;;
48911;SDS011;34722;52.108;5.044;2023-09-18T06:23:41;33.03;;;21.20;;
48911;SDS011;34722;52.108;5.044;2023-09-18T06:26:06;29.08;;;17.27;;
48911;SDS011;34722;52.108;5.044;2023-09-18T06:28:32;28.73;;;18.33;;
48911;SDS011;34722;52.108;5.044;2023-09-18T06:31:22;29.65;;;17.42;;
48911;SDS011;34722;52.108;5.044;2023-09-18T06:33:48;26.83;;;16.75;;
48911;SDS011;34722;52.108;5.044;2023-09-18T06:36:14;25.48;;;17.02;;
48911;SDS011;34722;52.108;5.044;2023-09-18T06:38:40;24.95;;;15.45;;
48911;SDS011;34722;52.108;5.044;2023-09-18T06:41:05;24.17;;;16.35;;
48911;SDS011;34722;52.108;5.044;2023-09-18T06:43:31;24.33;;;14.82;;
48911;SDS011;34722;52.108;5.044;2023-09-18T06:45:56;23.08;;;16.02;;
48911;SDS011;34722;52.108;5.044;2023-09-18T06:48:25;22.73;;;14.43;;
48911;SDS011;34722;52.108;5.044;2023-09-18T06:50:51;21.80;;;15.50;;
48911;SDS011;34722;52.108;5.044;2023-09-18T06:53:16;31.33;;;16.45;;
48911;SDS011;34722;52.108;5.044;2023-09-18T06:55:42;22.98;;;14.80;;
48911;SDS011;34722;52.108;5.044;2023-09-18T06:58:07;23.15;;;14.32;;
48911;SDS011;34722;52.108;5.044;2023-09-18T07:00:33;25.75;;;13.88;;
48911;SDS011;34722;52.108;5.044;2023-09-18T07:02:59;31.27;;;15.00;;
48911;SDS011;34722;52.108;5.044;2023-09-18T07:05:27;22.83;;;14.52;;
48911;SDS011;34722;52.108;5.044;2023-09-18T07:07:53;22.33;;;13.80;;
48911;SDS011;34722;52.108;5.044;2023-09-18T07:10:19;25.90;;;15.13;;
48911;SDS011;34722;52.108;5.044;2023-09-18T07:12:44;23.75;;;14.70;;
48911;SDS011;34722;52.108;5.044;2023-09-18T07:15:10;19.20;;;13.70;;
48911;SDS011;34722;52.108;5.044;2023-09-18T07:17:35;20.95;;;13.90;;
48911;SDS011;34722;52.108;5.044;2023-09-18T07:20:01;17.67;;;12.75;;
48911;SDS011;34722;52.108;5.044;2023-09-18T07:22:34;19.17;;;12.43;;
48911;SDS011;34722;52.108;5.044;2023-09-18T07:25:00;22.05;;;13.07;;
48911;SDS011;34722;52.108;5.044;2023-09-18T07:27:26;18.77;;;12.27;;
48911;SDS011;34722;52.108;5.044;2023-09-18T07:29:51;22.42;;;12.57;;
48911;SDS011;34722;52.108;5.044;2023-09-18T07:32:17;23.42;;;13.63;;
48911;SDS011;34722;52.108;5.044;2023-09-18T07:34:44;20.98;;;14.00;;
48911;SDS011;34722;52.108;5.044;2023-09-18T07:37:12;20.33;;;13.57;;
48911;SDS011;34722;52.108;5.044;2023-09-18T07:39:37;16.15;;;12.73;;
48911;SDS011;34722;52.108;5.044;2023-09-18T07:42:07;17.08;;;12.80;;
48911;SDS011;34722;52.108;5.044;2023-09-18T07:44:33;43.67;;;14.77;;
48911;SDS011;34722;52.108;5.044;2023-09-18T07:46:58;19.95;;;12.20;;
48911;SDS011;34722;52.108;5.044;2023-09-18T07:49:26;15.13;;;11.85;;
48911;SDS011;34722;52.108;5.044;2023-09-18T07:51:51;18.27;;;11.23;;
48911;SDS011;34722;52.108;5.044;2023-09-18T07:54:17;13.32;;;11.05;;
48911;SDS011;34722;52.108;5.044;2023-09-18T07:56:42;14.88;;;10.13;;
48911;SDS011;34722;52.108;5.044;2023-09-18T07:59:08;16.17;;;10.40;;
48911;SDS011;34722;52.108;5.044;2023-09-18T08:01:35;14.55;;;9.27;;
48911;SDS011;34722;52.108;5.044;2023-09-18T08:04:01;12.88;;;9.43;;
48911;SDS011;34722;52.108;5.044;2023-09-18T08:06:27;14.27;;;10.68;;
48911;SDS011;34722;52.108;5.044;2023-09-18T08:08:53;11.68;;;9.13;;
48911;SDS011;34722;52.108;5.044;2023-09-18T08:11:19;17.00;;;11.07;;
48911;SDS011;34722;52.108;5.044;2023-09-18T08:13:44;14.05;;;11.00;;
48911;SDS011;34722;52.108;5.044;2023-09-18T08:16:10;13.77;;;9.90;;
48911;SDS011;34722;52.108;5.044;2023-09-18T08:18:36;14.90;;;10.85;;
48911;SDS011;34722;52.108;5.044;2023-09-18T08:21:06;12.25;;;10.52;;
48911;SDS011;34722;52.108;5.044;2023-09-18T08:23:37;11.85;;;8.65;;
48911;SDS011;34722;52.108;5.044;2023-09-18T08:26:03;16.10;;;9.07;;
48911;SDS011;34722;52.108;5.044;2023-09-18T08:28:29;11.25;;;7.82;;
48911;SDS011;34722;52.108;5.044;2023-09-18T08:30:55;8.90;;;7.55;;
48911;SDS011;34722;52.108;5.044;2023-09-18T08:33:24;7.45;;;6.60;;
48911;SDS011;34722;52.108;5.044;2023-09-18T08:35:50;7.70;;;6.57;;
48911;SDS011;34722;52.108;5.044;2023-09-18T08:38:16;7.95;;;7.05;;
48911;SDS011;34722;52.108;5.044;2023-09-18T08:40:42;7.90;;;7.00;;
48911;SDS011;34722;52.108;5.044;2023-09-18T08:43:08;7.18;;;5.65;;
48911;SDS011;34722;52.108;5.044;2023-09-18T08:45:55;7.22;;;6.63;;
48911;SDS011;34722;52.108;5.044;2023-09-18T08:48:26;6.80;;;6.20;;
48911;SDS011;34722;52.108;5.044;2023-09-18T08:50:59;7.10;;;6.28;;
48911;SDS011;34722;52.108;5.044;2023-09-18T08:53:33;8.95;;;7.28;;
48911;SDS011;34722;52.108;5.044;2023-09-18T08:55:59;6.72;;;6.00;;
48911;SDS011;34722;52.108;5.044;2023-09-18T08:58:32;9.48;;;7.43;;
48911;SDS011;34722;52.108;5.044;2023-09-18T09:01:03;8.10;;;6.63;;
48911;SDS011;34722;52.108;5.044;2023-09-18T09:03:31;7.55;;;6.40;;
48911;SDS011;34722;52.108;5.044;2023-09-18T09:05:59;8.38;;;6.45;;
48911;SDS011;34722;52.108;5.044;2023-09-18T09:08:27;10.80;;;7.65;;
48911;SDS011;34722;52.108;5.044;2023-09-18T09:10:55;9.98;;;7.18;;
48911;SDS011;34722;52.108;5.044;2023-09-18T09:13:24;8.43;;;7.00;;
48911;SDS011;34722;52.108;5.044;2023-09-18T09:15:54;7.57;;;6.82;;
48911;SDS011;34722;52.108;5.044;2023-09-18T09:18:24;12.77;;;6.97;;
48911;SDS011;34722;52.108;5.044;2023-09-18T09:21:03;8.10;;;7.30;;
48911;SDS011;34722;52.108;5.044;2023-09-18T09:23:44;9.57;;;7.07;;
48911;SDS011;34722;52.108;5.044;2023-09-18T09:26:17;8.00;;;7.15;;
48911;SDS011;34722;52.108;5.044;2023-09-18T09:28:44;7.63;;;6.80;;
48911;SDS011;34722;52.108;5.044;2023-09-18T09:31:10;11.43;;;7.82;;
48911;SDS011;34722;52.108;5.044;2023-09-18T09:33:37;8.00;;;7.05;;
48911;SDS011;34722;52.108;5.044;2023-09-18T09:36:06;8.05;;;7.18;;
48911;SDS011;34722;52.108;5.044;2023-09-18T09:38:35;9.32;;;6.88;;
48911;SDS011;34722;52.108;5.044;2023-09-18T09:41:02;8.52;;;6.55;;
48911;SDS011;34722;52.108;5.044;2023-09-18T09:43:31;10.07;;;7.07;;
48911;SDS011;34722;52.108;5.044;2023-09-18T09:45:58;6.88;;;6.13;;
48911;SDS011;34722;52.108;5.044;2023-09-18T09:48:25;8.98;;;6.20;;
48911;SDS011;34722;52.108;5.044;2023-09-18T09:50:51;12.68;;;7.13;;
48911;SDS011;34722;52.108;5.044;2023-09-18T09:53:18;10.63;;;7.35;;
48911;SDS011;34722;52.108;5.044;2023-09-18T09:55:44;9.07;;;7.80;;
48911;SDS011;34722;52.108;5.044;2023-09-18T09:58:10;8.75;;;7.90;;
48911;SDS011;34722;52.108;5.044;2023-09-18T10:00:49;10.55;;;7.68;;
48911;SDS011;34722;52.108;5.044;2023-09-18T10:03:18;8.65;;;7.63;;
48911;SDS011;34722;52.108;5.044;2023-09-18T10:05:46;9.48;;;8.57;;
48911;SDS011;34722;52.108;5.044;2023-09-18T10:08:21;9.27;;;8.30;;
48911;SDS011;34722;52.108;5.044;2023-09-18T10:10:55;10.25;;;7.63;;
48911;SDS011;34722;52.108;5.044;2023-09-18T10:13:41;9.07;;;8.07;;
48911;SDS011;34722;52.108;5.044;2023-09-18T10:16:08;9.00;;;8.10;;
48911;SDS011;34722;52.108;5.044;2023-09-18T10:18:38;10.50;;;8.43;;
48911;SDS011;34722;52.108;5.044;2023-09-18T10:24:20;13.98;;;8.70;;
48911;SDS011;34722;52.108;5.044;2023-09-18T10:29:21;10.05;;;7.68;;
48911;SDS011;34722;52.108;5.044;2023-09-18T10:31:48;11.43;;;8.88;;
48911;SDS011;34722;52.108;5.044;2023-09-18T10:34:16;9.38;;;7.47;;
48911;SDS011;34722;52.108;5.044;2023-09-18T10:36:43;14.93;;;7.95;;
48911;SDS011;34722;52.108;5.044;2023-09-18T10:39:15;8.18;;;7.00;;
48911;SDS011;34722;52.108;5.044;2023-09-18T10:41:51;7.20;;;6.35;;
48911;SDS011;34722;52.108;5.044;2023-09-18T10:44:18;7.47;;;6.45;;
48911;SDS011;34722;52.108;5.044;2023-09-18T10:46:51;11.93;;;7.40;;
48911;SDS011;34722;52.108;5.044;2023-09-18T10:49:18;9.57;;;7.03;;
48911;SDS011;34722;52.108;5.044;2023-09-18T10:51:46;8.75;;;6.78;;
48911;SDS011;34722;52.108;5.044;2023-09-18T10:54:16;8.75;;;6.90;;
48911;SDS011;34722;52.108;5.044;2023-09-18T10:56:48;11.45;;;7.95;;
48911;SDS011;34722;52.108;5.044;2023-09-18T10:59:14;8.70;;;7.90;;
48911;SDS011;34722;52.108;5.044;2023-09-18T11:01:43;8.55;;;7.70;;
48911;SDS011;34722;52.108;5.044;2023-09-18T11:04:10;10.25;;;6.85;;
48911;SDS011;34722;52.108;5.044;2023-09-18T11:09:27;14.43;;;8.85;;
48911;SDS011;34722;52.108;5.044;2023-09-18T11:11:54;7.82;;;7.22;;
48911;SDS011;34722;52.108;5.044;2023-09-18T11:15:16;10.23;;;7.65;;
48911;SDS011;34722;52.108;5.044;2023-09-18T11:17:38;8.90;;;8.10;;
48911;SDS011;34722;52.108;5.044;2023-09-18T11:20:05;8.32;;;7.53;;
48911;SDS011;34722;52.108;5.044;2023-09-18T11:22:48;9.40;;;7.82;;
48911;SDS011;34722;52.108;5.044;2023-09-18T11:25:28;7.72;;;7.05;;
48911;SDS011;34722;52.108;5.044;2023-09-18T11:28:06;9.15;;;7.38;;
48911;SDS011;34722;52.108;5.044;2023-09-18T11:30:36;7.72;;;6.97;;
48911;SDS011;34722;52.108;5.044;2023-09-18T11:38:51;10.80;;;6.07;;
48911;SDS011;34722;52.108;5.044;2023-09-18T11:41:25;9.15;;;6.60;;
48911;SDS011;34722;52.108;5.044;2023-09-18T11:43:52;8.32;;;7.20;;
48911;SDS011;34722;52.108;5.044;2023-09-18T11:46:50;9.30;;;7.03;;
48911;SDS011;34722;52.108;5.044;2023-09-18T11:49:23;8.07;;;6.82;;
48911;SDS011;34722;52.108;5.044;2023-09-18T11:51:53;12.20;;;7.70;;
48911;SDS011;34722;52.108;5.044;2023-09-18T11:54:20;8.13;;;6.50;;
48911;SDS011;34722;52.108;5.044;2023-09-18T11:56:46;7.93;;;5.90;;
48911;SDS011;34722;52.108;5.044;2023-09-18T11:59:15;6.75;;;5.80;;
48911;SDS011;34722;52.108;5.044;2023-09-18T12:01:42;10.40;;;5.55;;
48911;SDS011;34722;52.108;5.044;2023-09-18T12:04:17;8.98;;;5.40;;
48911;SDS011;34722;52.108;5.044;2023-09-18T12:06:53;7.47;;;5.60;;
48911;SDS011;34722;52.108;5.044;2023-09-18T12:09:19;7.45;;;4.75;;
48911;SDS011;34722;52.108;5.044;2023-09-18T12:11:44;7.90;;;5.72;;
48911;SDS011;34722;52.108;5.044;2023-09-18T12:14:10;5.65;;;5.10;;
48911;SDS011;34722;52.108;5.044;2023-09-18T12:16:38;7.50;;;5.75;;
48911;SDS011;34722;52.108;5.044;2023-09-18T12:19:04;8.15;;;5.82;;
48911;SDS011;34722;52.108;5.044;2023-09-18T12:21:31;8.55;;;6.43;;
48911;SDS011;34722;52.108;5.044;2023-09-18T12:23:57;10.77;;;6.18;;
48911;SDS011;34722;52.108;5.044;2023-09-18T12:26:24;9.20;;;6.57;;
48911;SDS011;34722;52.108;5.044;2023-09-18T12:28:51;8.35;;;6.13;;
48911;SDS011;34722;52.108;5.044;2023-09-18T12:31:16;6.55;;;5.55;;
48911;SDS011;34722;52.108;5.044;2023-09-18T12:33:43;9.48;;;5.75;;
48911;SDS011;34722;52.108;5.044;2023-09-18T12:36:09;7.03;;;5.70;;
48911;SDS011;34722;52.108;5.044;2023-09-18T12:38:36;10.45;;;6.93;;
48911;SDS011;34722;52.108;5.044;2023-09-18T12:41:02;6.88;;;6.03;;
48911;SDS011;34722;52.108;5.044;2023-09-18T12:43:36;7.55;;;6.25;;
48911;SDS011;34722;52.108;5.044;2023-09-18T12:46:04;6.47;;;5.83;;
48911;SDS011;34722;52.108;5.044;2023-09-18T12:48:31;8.02;;;5.63;;
48911;SDS011;34722;52.108;5.044;2023-09-18T12:51:06;12.88;;;6.10;;
48911;SDS011;34722;52.108;5.044;2023-09-18T12:53:40;7.53;;;6.07;;
48911;SDS011;34722;52.108;5.044;2023-09-18T12:56:10;8.70;;;6.13;;
48911;SDS011;34722;52.108;5.044;2023-09-18T12:58:38;5.43;;;4.93;;
48911;SDS011;34722;52.108;5.044;2023-09-18T13:01:05;7.38;;;6.47;;
48911;SDS011;34722;52.108;5.044;2023-09-18T13:06:11;8.38;;;5.40;;
48911;SDS011;34722;52.108;5.044;2023-09-18T13:08:42;7.03;;;6.13;;
48911;SDS011;34722;52.108;5.044;2023-09-18T13:11:17;8.13;;;5.97;;
48911;SDS011;34722;52.108;5.044;2023-09-18T13:13:45;9.85;;;7.25;;
48911;SDS011;34722;52.108;5.044;2023-09-18T13:16:11;12.02;;;6.47;;
48911;SDS011;34722;52.108;5.044;2023-09-18T13:18:38;9.32;;;8.50;;
48911;SDS011;34722;52.108;5.044;2023-09-18T13:21:11;9.90;;;8.35;;
48911;SDS011;34722;52.108;5.044;2023-09-18T13:23:41;11.27;;;7.97;;
48911;SDS011;34722;52.108;5.044;2023-09-18T13:26:07;7.65;;;6.47;;
48911;SDS011;34722;52.108;5.044;2023-09-18T13:28:33;7.68;;;5.53;;
48911;SDS011;34722;52.108;5.044;2023-09-18T13:31:07;5.90;;;5.40;;
48911;SDS011;34722;52.108;5.044;2023-09-18T13:33:37;6.72;;;5.82;;
48911;SDS011;34722;52.108;5.044;2023-09-18T13:36:04;5.57;;;5.03;;
48911;SDS011;34722;52.108;5.044;2023-09-18T13:38:30;7.25;;;4.90;;
48911;SDS011;34722;52.108;5.044;2023-09-18T13:40:55;8.10;;;5.72;;
48911;SDS011;34722;52.108;5.044;2023-09-18T13:43:21;6.45;;;5.38;;
48911;SDS011;34722;52.108;5.044;2023-09-18T13:45:48;8.63;;;5.78;;
48911;SDS011;34722;52.108;5.044;2023-09-18T13:48:19;6.25;;;5.75;;
48911;SDS011;34722;52.108;5.044;2023-09-18T13:50:46;6.57;;;5.93;;
48911;SDS011;34722;52.108;5.044;2023-09-18T13:53:17;8.85;;;7.85;;
48911;SDS011;34722;52.108;5.044;2023-09-18T13:55:50;7.75;;;7.05;;
48911;SDS011;34722;52.108;5.044;2023-09-18T13:58:15;10.88;;;7.10;;
48911;SDS011;34722;52.108;5.044;2023-09-18T14:00:41;7.72;;;6.32;;
48911;SDS011;34722;52.108;5.044;2023-09-18T14:03:08;7.50;;;6.43;;
48911;SDS011;34722;52.108;5.044;2023-09-18T14:05:35;7.63;;;6.70;;
48911;SDS011;34722;52.108;5.044;2023-09-18T14:08:00;5.70;;;5.10;;
48911;SDS011;34722;52.108;5.044;2023-09-18T14:10:29;5.90;;;4.57;;
48911;SDS011;34722;52.108;5.044;2023-09-18T14:12:55;6.20;;;4.40;;
48911;SDS011;34722;52.108;5.044;2023-09-18T14:15:22;5.28;;;4.00;;
48911;SDS011;34722;52.108;5.044;2023-09-18T14:17:48;5.00;;;4.13;;
48911;SDS011;34722;52.108;5.044;2023-09-18T14:20:14;4.22;;;3.83;;
48911;SDS011;34722;52.108;5.044;2023-09-18T14:22:43;7.60;;;3.90;;
48911;SDS011;34722;52.108;5.044;2023-09-18T14:25:08;5.03;;;4.38;;
48911;SDS011;34722;52.108;5.044;2023-09-18T14:27:34;4.07;;;3.67;;
48911;SDS011;34722;52.108;5.044;2023-09-18T14:30:00;6.15;;;4.43;;
48911;SDS011;34722;52.108;5.044;2023-09-18T14:32:30;4.00;;;3.63;;
48911;SDS011;34722;52.108;5.044;2023-09-18T14:34:56;6.00;;;4.70;;
48911;SDS011;34722;52.108;5.044;2023-09-18T14:37:26;6.38;;;4.20;;
48911;SDS011;34722;52.108;5.044;2023-09-18T14:39:51;9.10;;;4.38;;
48911;SDS011;34722;52.108;5.044;2023-09-18T14:42:17;5.65;;;3.90;;
48911;SDS011;34722;52.108;5.044;2023-09-18T14:44:42;10.30;;;4.57;;
48911;SDS011;34722;52.108;5.044;2023-09-18T14:47:10;6.25;;;4.28;;
48911;SDS011;34722;52.108;5.044;2023-09-18T14:49:36;4.97;;;4.07;;
48911;SDS011;34722;52.108;5.044;2023-09-18T14:52:02;7.50;;;3.92;;